createdAt,value
2022-10-05T00:00:21.830Z,4.20
2022-10-05T00:02:52.350Z,3.73
2022-10-05T00:05:27.395Z,4.70
2022-10-05T00:07:55.725Z,3.30
2022-10-05T00:10:24.108Z,3.50
2022-10-05T00:12:52.024Z,3.53
2022-10-05T00:15:20.297Z,3.47
2022-10-05T00:17:48.429Z,3.53
2022-10-05T00:20:21.389Z,3.47
2022-10-05T00:22:49.225Z,3.20
2022-10-05T00:25:18.511Z,3.43
2022-10-05T00:27:47.624Z,3.50
2022-10-05T00:30:17.844Z,3.50
2022-10-05T00:32:45.930Z,3.00
2022-10-05T00:35:14.597Z,3.73
2022-10-05T00:37:44.189Z,3.90
2022-10-05T00:40:25.228Z,3.77
2022-10-05T00:42:56.388Z,3.43
2022-10-05T00:45:27.744Z,3.70
2022-10-05T00:47:58.781Z,3.40
2022-10-05T00:50:38.570Z,3.80
2022-10-05T00:53:12.975Z,3.50
2022-10-05T00:55:47.404Z,3.60
2022-10-05T00:58:18.612Z,3.37
2022-10-05T01:00:50.614Z,3.63
2022-10-05T01:03:20.681Z,3.60
2022-10-05T01:05:56.207Z,3.23
2022-10-05T01:08:30.136Z,3.30
2022-10-05T01:11:03.663Z,3.60
2022-10-05T01:13:33.913Z,4.00
2022-10-05T01:16:06.729Z,3.50
2022-10-05T01:18:39.037Z,4.00
2022-10-05T01:21:10.045Z,3.77
2022-10-05T01:24:15.927Z,3.23
2022-10-05T01:26:52.418Z,3.40
2022-10-05T01:29:23.773Z,3.70
2022-10-05T01:31:54.355Z,3.83
2022-10-05T01:34:25.217Z,3.20
2022-10-05T01:36:56.099Z,3.77
2022-10-05T01:39:26.074Z,3.63
2022-10-05T01:41:57.354Z,3.43
2022-10-05T01:44:29.589Z,3.50
2022-10-05T01:47:00.265Z,3.90
2022-10-05T01:49:38.157Z,3.60
2022-10-05T01:52:14.020Z,3.53
2022-10-05T01:54:46.173Z,3.70
2022-10-05T01:57:18.413Z,4.20
2022-10-05T01:59:55.928Z,3.30
2022-10-05T02:02:24.591Z,3.50
2022-10-05T02:05:01.900Z,3.70
2022-10-05T02:07:30.940Z,3.80
2022-10-05T02:10:00.851Z,3.70
2022-10-05T02:12:30.428Z,4.60
2022-10-05T02:15:02.517Z,4.20
2022-10-05T02:17:33.614Z,3.60
2022-10-05T02:20:03.120Z,3.27
2022-10-05T02:22:31.860Z,3.63
2022-10-05T02:25:01.992Z,3.97
2022-10-05T02:27:31.074Z,3.53
2022-10-05T02:30:02.945Z,3.47
2022-10-05T02:32:34.034Z,4.00
2022-10-05T02:35:03.460Z,3.40
2022-10-05T02:37:35.346Z,3.40
2022-10-05T02:40:10.843Z,3.73
2022-10-05T02:42:43.181Z,3.13
2022-10-05T02:45:16.581Z,3.80
2022-10-05T02:47:47.253Z,3.60
2022-10-05T02:50:18.357Z,3.57
2022-10-05T02:52:49.022Z,3.67
2022-10-05T02:55:19.501Z,4.00
2022-10-05T02:57:50.073Z,3.87
2022-10-05T03:00:20.567Z,3.33
2022-10-05T03:02:52.971Z,3.30
2022-10-05T03:05:23.626Z,3.63
2022-10-05T03:07:55.777Z,3.63
2022-10-05T03:10:28.862Z,3.93
2022-10-05T03:13:01.581Z,3.70
2022-10-05T03:15:46.646Z,3.70
2022-10-05T03:18:16.981Z,3.93
2022-10-05T03:20:48.755Z,4.00
2022-10-05T03:23:20.259Z,3.33
2022-10-05T03:26:13.073Z,3.60
2022-10-05T03:28:44.841Z,3.50
2022-10-05T03:31:16.308Z,3.67
2022-10-05T03:33:46.842Z,3.80
2022-10-05T03:36:18.914Z,3.80
2022-10-05T03:38:50.164Z,3.60
2022-10-05T03:41:21.617Z,3.80
2022-10-05T03:44:02.938Z,3.37
2022-10-05T03:46:45.829Z,3.40
2022-10-05T03:49:16.886Z,3.70
2022-10-05T03:51:46.899Z,3.97
2022-10-05T03:54:17.609Z,3.40
2022-10-05T03:56:47.908Z,3.90
2022-10-05T03:59:18.021Z,3.93
2022-10-05T04:01:50.947Z,4.00
2022-10-05T04:04:20.975Z,4.00
2022-10-05T04:06:49.349Z,3.93
2022-10-05T04:09:19.591Z,3.60
2022-10-05T04:11:50.957Z,3.43
2022-10-05T04:14:21.198Z,4.03
2022-10-05T04:16:52.681Z,4.07
2022-10-05T04:19:22.393Z,3.40
2022-10-05T04:21:52.244Z,3.70
2022-10-05T04:24:21.861Z,3.57
2022-10-05T04:26:51.316Z,3.77
2022-10-05T04:29:28.443Z,4.33
2022-10-05T04:32:05.830Z,3.93
2022-10-05T04:34:45.586Z,4.17
2022-10-05T04:37:15.623Z,3.70
2022-10-05T04:39:47.031Z,4.20
2022-10-05T04:42:17.589Z,3.57
2022-10-05T04:44:58.974Z,4.47
2022-10-05T04:47:37.219Z,3.77
2022-10-05T04:50:18.058Z,3.90
2022-10-05T04:52:50.238Z,3.63
2022-10-05T04:55:23.302Z,4.10
2022-10-05T04:57:51.551Z,4.27
2022-10-05T05:00:24.145Z,3.97
2022-10-05T05:03:17.955Z,3.70
2022-10-05T05:06:15.514Z,3.53
2022-10-05T05:08:47.374Z,4.20
2022-10-05T05:11:24.691Z,4.50
2022-10-05T05:14:12.409Z,3.97
2022-10-05T05:16:41.238Z,3.97
2022-10-05T05:19:25.589Z,4.17
2022-10-05T05:21:58.701Z,3.90
2022-10-05T05:24:33.024Z,4.00
2022-10-05T05:27:12.453Z,3.80
2022-10-05T05:29:45.917Z,4.80
2022-10-05T05:32:18.985Z,4.00
2022-10-05T05:34:55.949Z,3.80
2022-10-05T05:37:26.195Z,4.20
2022-10-05T05:39:56.596Z,4.17
2022-10-05T05:42:30.375Z,4.43
2022-10-05T05:44:58.837Z,4.13
2022-10-05T05:47:29.144Z,3.93
2022-10-05T05:50:11.736Z,4.30
2022-10-05T05:52:42.126Z,4.40
2022-10-05T05:55:13.669Z,4.23
2022-10-05T05:57:43.928Z,5.00
2022-10-05T06:00:19.806Z,4.30
2022-10-05T06:02:50.038Z,4.30
2022-10-05T06:05:33.901Z,5.03
2022-10-05T06:08:03.944Z,4.33
2022-10-05T06:10:34.820Z,4.77
2022-10-05T06:13:06.469Z,3.97
2022-10-05T06:15:35.996Z,4.43
2022-10-05T06:18:05.384Z,4.50
2022-10-05T06:20:37.923Z,3.97
2022-10-05T06:23:06.822Z,4.80
2022-10-05T06:25:37.424Z,5.03
2022-10-05T06:28:09.801Z,4.57
2022-10-05T06:30:45.941Z,4.43
2022-10-05T06:33:20.954Z,4.60
2022-10-05T06:35:57.528Z,5.00
2022-10-05T06:38:46.810Z,4.50
2022-10-05T06:41:17.891Z,4.37
2022-10-05T06:43:49.838Z,5.17
2022-10-05T06:46:21.350Z,4.50
2022-10-05T06:48:58.898Z,4.97
2022-10-05T06:51:31.099Z,5.30
2022-10-05T06:54:04.685Z,5.13
2022-10-05T06:56:34.311Z,4.40
2022-10-05T06:59:05.364Z,4.83
2022-10-05T07:01:39.663Z,4.63
2022-10-05T07:04:16.734Z,4.73
2022-10-05T07:06:47.224Z,4.10
2022-10-05T07:09:26.437Z,5.97
2022-10-05T07:12:04.822Z,4.97
2022-10-05T07:14:40.957Z,4.60
2022-10-05T07:17:27.279Z,5.10
2022-10-05T07:19:58.656Z,4.97
2022-10-05T07:22:48.501Z,5.23
2022-10-05T07:25:18.135Z,4.60
2022-10-05T07:27:51.697Z,4.80
2022-10-05T07:30:19.661Z,5.00
2022-10-05T07:32:52.699Z,4.73
2022-10-05T07:35:43.931Z,4.60
2022-10-05T07:38:14.026Z,4.73
2022-10-05T07:40:44.081Z,4.40
2022-10-05T07:43:23.231Z,4.77
2022-10-05T07:45:53.671Z,4.77
2022-10-05T07:48:22.486Z,4.77
2022-10-05T07:51:00.919Z,4.40
2022-10-05T07:53:32.545Z,4.80
2022-10-05T07:56:03.202Z,4.73
2022-10-05T07:58:32.889Z,4.90
2022-10-05T08:01:09.535Z,5.00
2022-10-05T08:03:44.463Z,4.40
2022-10-05T08:06:13.585Z,4.27
2022-10-05T08:08:46.060Z,4.43
2022-10-05T08:11:15.576Z,5.00
2022-10-05T08:13:45.951Z,4.50
2022-10-05T08:16:14.557Z,4.10
2022-10-05T08:18:49.337Z,4.70
2022-10-05T08:21:18.173Z,4.20
2022-10-05T08:23:48.653Z,4.40
2022-10-05T08:26:19.379Z,4.70
2022-10-05T08:28:51.006Z,4.03
2022-10-05T08:31:21.253Z,4.07
2022-10-05T08:33:55.568Z,4.30
2022-10-05T08:36:28.937Z,4.40
2022-10-05T08:38:59.270Z,3.90
2022-10-05T08:41:48.419Z,4.50
2022-10-05T08:44:51.232Z,3.90
2022-10-05T08:47:41.975Z,4.63
2022-10-05T08:50:20.902Z,4.33
2022-10-05T08:53:03.325Z,4.00
2022-10-05T08:55:37.806Z,4.00
2022-10-05T08:58:50.456Z,4.10
2022-10-05T09:01:21.858Z,4.10
2022-10-05T09:04:07.082Z,3.93
2022-10-05T09:06:56.260Z,3.60
2022-10-05T09:09:35.589Z,3.67
2022-10-05T09:12:19.865Z,3.87
2022-10-05T09:15:07.163Z,4.23
2022-10-05T09:18:07.210Z,3.60
2022-10-05T09:20:38.727Z,4.60
2022-10-05T09:23:14.092Z,3.73
2022-10-05T09:25:57.253Z,3.73
2022-10-05T09:28:31.217Z,4.00
2022-10-05T09:31:16.264Z,3.73
2022-10-05T09:34:16.053Z,3.90
2022-10-05T09:37:09.236Z,4.77
2022-10-05T09:39:45.838Z,3.70
2022-10-05T09:42:41.568Z,3.50
2022-10-05T09:45:44.272Z,3.87
2022-10-05T09:48:41.325Z,3.80
2022-10-05T09:51:41.754Z,3.50
2022-10-05T09:54:57.195Z,3.73
2022-10-05T09:57:53.352Z,3.90
2022-10-05T10:00:25.998Z,3.67
2022-10-05T10:03:18.538Z,4.00
2022-10-05T10:06:10.625Z,3.97
2022-10-05T10:08:44.970Z,3.53
2022-10-05T10:11:24.931Z,3.80
2022-10-05T10:14:11.379Z,3.67
2022-10-05T10:16:49.746Z,3.70
2022-10-05T10:19:45.798Z,3.70
2022-10-05T10:22:57.378Z,3.40
2022-10-05T10:25:34.709Z,3.47
2022-10-05T10:28:20.341Z,3.50
2022-10-05T10:30:59.316Z,3.63
2022-10-05T10:33:54.871Z,3.40
2022-10-05T10:36:23.984Z,3.10
2022-10-05T10:39:02.462Z,3.40
2022-10-05T10:41:55.712Z,3.23
2022-10-05T10:44:51.452Z,3.30
2022-10-05T10:47:48.382Z,3.00
2022-10-05T10:50:43.632Z,3.30
2022-10-05T10:53:23.587Z,3.00
2022-10-05T10:55:56.157Z,3.07
2022-10-05T10:58:45.594Z,2.80
2022-10-05T11:01:24.612Z,2.73
2022-10-05T11:04:28.625Z,3.00
2022-10-05T11:07:12.313Z,3.10
2022-10-05T11:10:00.267Z,3.20
2022-10-05T11:12:49.888Z,3.07
2022-10-05T11:15:53.367Z,2.63
2022-10-05T11:18:22.689Z,2.80
2022-10-05T11:21:31.819Z,2.80
2022-10-05T11:24:39.212Z,2.47
2022-10-05T11:27:26.257Z,2.80
2022-10-05T11:30:22.993Z,2.80
2022-10-05T11:33:14.544Z,2.80
2022-10-05T11:36:21.474Z,2.40
2022-10-05T11:39:04.477Z,2.63
2022-10-05T11:41:56.105Z,2.60
2022-10-05T11:44:43.398Z,2.90
2022-10-05T11:47:13.696Z,2.57
2022-10-05T11:49:42.461Z,2.50
2022-10-05T11:52:12.778Z,2.40
2022-10-05T11:55:11.116Z,2.30
2022-10-05T11:57:44.156Z,2.57
2022-10-05T12:00:15.042Z,2.40
2022-10-05T12:03:10.299Z,2.40
2022-10-05T12:05:42.200Z,2.17
2022-10-05T12:08:21.279Z,2.37
2022-10-05T12:10:52.870Z,2.10
2022-10-05T12:13:27.217Z,2.73
2022-10-05T12:15:56.846Z,2.57
2022-10-05T12:18:39.419Z,2.50
2022-10-05T12:21:10.561Z,2.47
2022-10-05T12:23:40.771Z,2.40
2022-10-05T12:26:11.000Z,2.17
2022-10-05T12:28:43.076Z,2.20
2022-10-05T12:31:24.093Z,1.80
2022-10-05T12:33:55.833Z,2.03
2022-10-05T12:36:35.951Z,2.30
2022-10-05T12:39:17.049Z,1.80
2022-10-05T12:41:47.539Z,2.20
2022-10-05T12:44:20.001Z,2.27
2022-10-05T12:46:52.748Z,2.07
2022-10-05T12:49:32.865Z,2.07
2022-10-05T12:52:01.225Z,2.13
2022-10-05T12:54:36.279Z,2.47
2022-10-05T12:57:07.024Z,2.30
2022-10-05T12:59:41.549Z,2.07
2022-10-05T13:02:16.675Z,2.10
2022-10-05T13:04:48.554Z,2.40
2022-10-05T13:07:29.667Z,2.30
2022-10-05T13:10:00.946Z,2.60
2022-10-05T13:12:35.987Z,2.30
2022-10-05T13:15:08.201Z,2.30
2022-10-05T13:17:38.993Z,2.10
2022-10-05T13:20:12.183Z,2.30
2022-10-05T13:22:41.454Z,2.60
2022-10-05T13:25:19.403Z,2.17
2022-10-05T13:27:49.954Z,2.57
2022-10-05T13:30:19.809Z,2.00
2022-10-05T13:32:48.246Z,2.40
2022-10-05T13:35:27.000Z,2.60
2022-10-05T13:38:01.638Z,2.40
2022-10-05T13:40:32.902Z,2.57
2022-10-05T13:43:03.948Z,2.57
2022-10-05T13:45:37.555Z,2.50
2022-10-05T13:48:12.154Z,2.37
2022-10-05T13:50:43.516Z,2.77
2022-10-05T13:53:15.484Z,2.97
2022-10-05T13:55:46.609Z,2.27
2022-10-05T13:58:20.108Z,2.73
2022-10-05T14:00:51.101Z,2.60
2022-10-05T14:03:27.467Z,2.60
2022-10-05T14:05:57.410Z,2.70
2022-10-05T14:08:28.362Z,2.07
2022-10-05T14:10:56.969Z,2.80
2022-10-05T14:13:27.247Z,3.00
2022-10-05T14:16:07.359Z,2.80
2022-10-05T14:18:37.500Z,2.47
2022-10-05T14:21:18.019Z,2.63
2022-10-05T14:23:45.920Z,2.67
2022-10-05T14:26:22.136Z,2.60
2022-10-05T14:28:58.638Z,2.37
2022-10-05T14:31:32.744Z,2.73
2022-10-05T14:34:23.301Z,2.73
2022-10-05T14:36:53.408Z,2.40
2022-10-05T14:39:21.135Z,2.60
2022-10-05T14:41:50.280Z,2.60
2022-10-05T14:44:27.663Z,2.53
2022-10-05T14:46:58.765Z,2.23
2022-10-05T14:49:27.800Z,2.40
2022-10-05T14:51:56.586Z,2.13
2022-10-05T14:54:30.903Z,2.93
2022-10-05T14:57:12.530Z,2.47
2022-10-05T15:00:04.919Z,2.50
2022-10-05T15:02:45.520Z,2.50
2022-10-05T15:05:16.410Z,2.47
2022-10-05T15:07:45.873Z,2.80
2022-10-05T15:10:29.622Z,2.40
2022-10-05T15:13:00.041Z,2.73
2022-10-05T15:15:32.827Z,2.27
2022-10-05T15:18:03.698Z,2.30
2022-10-05T15:20:35.115Z,2.33
2022-10-05T15:23:11.277Z,2.20
2022-10-05T15:25:43.086Z,2.40
2022-10-05T15:28:13.811Z,2.57
2022-10-05T15:30:42.696Z,2.53
2022-10-05T15:33:18.425Z,2.33
2022-10-05T15:36:05.300Z,2.33
2022-10-05T15:38:36.921Z,2.20
2022-10-05T15:41:10.845Z,2.53
2022-10-05T15:43:52.675Z,2.33
2022-10-05T15:46:23.482Z,2.20
2022-10-05T15:49:08.714Z,2.00
2022-10-05T15:51:45.360Z,2.13
2022-10-05T15:54:44.097Z,2.40
2022-10-05T15:57:20.636Z,2.40
2022-10-05T15:59:57.839Z,2.20
2022-10-05T16:02:29.779Z,2.43
2022-10-05T16:05:04.943Z,2.27
2022-10-05T16:07:54.427Z,2.60
2022-10-05T16:10:23.780Z,2.47
2022-10-05T16:13:04.406Z,2.40
2022-10-05T16:15:34.536Z,2.07
2022-10-05T16:18:32.421Z,2.80
2022-10-05T16:21:07.055Z,2.87
2022-10-05T16:23:39.003Z,2.60
2022-10-05T16:26:14.619Z,2.30
2022-10-05T16:28:49.951Z,2.40
2022-10-05T16:31:20.321Z,2.50
2022-10-05T16:33:56.370Z,2.03
2022-10-05T16:36:32.424Z,2.50
2022-10-05T16:39:04.064Z,2.00
2022-10-05T16:41:35.161Z,2.40
2022-10-05T16:44:07.904Z,2.40
2022-10-05T16:46:38.092Z,2.63
2022-10-05T16:49:10.913Z,2.40
2022-10-05T16:51:44.815Z,2.20
2022-10-05T16:54:18.315Z,2.50
2022-10-05T16:56:48.603Z,2.97
2022-10-05T16:59:42.720Z,3.10
2022-10-05T17:02:15.602Z,3.00
2022-10-05T17:04:46.032Z,2.97
2022-10-05T17:07:57.282Z,3.10
2022-10-05T17:10:41.110Z,3.00
2022-10-05T17:13:21.054Z,2.90
2022-10-05T17:16:00.693Z,2.60
2022-10-05T17:18:49.676Z,2.97
2022-10-05T17:21:19.049Z,2.63
2022-10-05T17:23:54.593Z,2.90
2022-10-05T17:26:54.919Z,3.10
2022-10-05T17:29:42.656Z,2.90
2022-10-05T17:32:12.249Z,2.90
2022-10-05T17:34:40.441Z,3.03
2022-10-05T17:37:19.232Z,2.83
2022-10-05T17:39:49.121Z,2.53
2022-10-05T17:42:52.379Z,2.80
2022-10-05T17:45:52.721Z,2.53
2022-10-05T17:48:43.656Z,2.80
2022-10-05T17:52:09.407Z,2.60
2022-10-05T17:55:19.462Z,2.53
2022-10-05T17:57:47.204Z,3.00
2022-10-05T18:00:44.557Z,2.73
2022-10-05T18:03:37.715Z,2.60
2022-10-05T18:06:31.800Z,3.00
2022-10-05T18:09:20.854Z,2.50
2022-10-05T18:12:04.112Z,2.90
2022-10-05T18:14:51.439Z,2.63
2022-10-05T18:17:36.712Z,2.73
2022-10-05T18:20:33.670Z,2.80
2022-10-05T18:23:35.390Z,2.80
2022-10-05T18:26:07.835Z,2.70
2022-10-05T18:28:41.478Z,2.80
2022-10-05T18:31:16.594Z,2.37
2022-10-05T18:33:53.531Z,2.37
2022-10-05T18:36:28.828Z,2.43
2022-10-05T18:39:00.405Z,2.60
2022-10-05T18:41:37.720Z,2.70
2022-10-05T18:44:17.793Z,2.63
2022-10-05T18:46:47.904Z,2.80
2022-10-05T18:49:30.452Z,2.80
2022-10-05T18:52:01.761Z,2.10
2022-10-05T18:54:38.122Z,2.17
2022-10-05T18:57:25.738Z,2.40
2022-10-05T18:59:55.571Z,2.30
2022-10-05T19:02:24.548Z,2.30
2022-10-05T19:05:02.436Z,2.20
2022-10-05T19:07:38.700Z,2.27
2022-10-05T19:10:11.985Z,2.40
2022-10-05T19:12:47.123Z,2.40
2022-10-05T19:15:19.272Z,2.17
2022-10-05T19:17:54.426Z,2.37
2022-10-05T19:20:23.489Z,2.27
2022-10-05T19:23:03.885Z,2.10
2022-10-05T19:25:37.905Z,2.13
2022-10-05T19:28:12.166Z,2.03
2022-10-05T19:30:49.411Z,2.20
2022-10-05T19:33:27.183Z,1.97
2022-10-05T19:36:01.444Z,1.80
2022-10-05T19:38:33.722Z,2.20
2022-10-05T19:41:05.119Z,1.90
2022-10-05T19:43:40.547Z,2.20
2022-10-05T19:46:17.683Z,1.90
2022-10-05T19:48:48.533Z,1.90
2022-10-05T19:51:18.712Z,1.93
2022-10-05T19:53:50.267Z,1.60
2022-10-05T19:56:20.547Z,1.73
2022-10-05T19:58:48.885Z,1.60
2022-10-05T20:01:25.004Z,1.70
2022-10-05T20:03:53.400Z,1.80
2022-10-05T20:06:22.666Z,1.67
2022-10-05T20:08:52.878Z,1.83
2022-10-05T20:11:21.225Z,1.73
2022-10-05T20:14:20.105Z,1.90
2022-10-05T20:17:05.645Z,1.70
2022-10-05T20:19:51.579Z,1.70
2022-10-05T20:22:32.790Z,1.70
2022-10-05T20:25:01.990Z,1.50
2022-10-05T20:27:55.396Z,1.60
2022-10-05T20:30:25.286Z,1.63
2022-10-05T20:32:57.548Z,2.00
2022-10-05T20:35:27.682Z,1.93
2022-10-05T20:38:00.300Z,1.37
2022-10-05T20:40:29.348Z,1.70
2022-10-05T20:42:57.300Z,1.70
2022-10-05T20:45:26.643Z,1.80
2022-10-05T20:47:55.453Z,1.60
2022-10-05T20:50:23.417Z,1.70
2022-10-05T20:52:51.422Z,2.37
2022-10-05T20:55:20.769Z,1.90
2022-10-05T20:57:49.010Z,1.50
2022-10-05T21:00:17.124Z,1.80
2022-10-05T21:02:46.885Z,1.93
2022-10-05T21:05:14.851Z,1.53
2022-10-05T21:07:43.041Z,1.77
2022-10-05T21:10:14.809Z,1.50
2022-10-05T21:12:42.768Z,1.90
2022-10-05T21:15:10.947Z,2.00
2022-10-05T21:17:39.949Z,1.70
2022-10-05T21:20:11.163Z,1.90
2022-10-05T21:22:38.902Z,2.00
2022-10-05T21:25:09.329Z,1.80
2022-10-05T21:27:37.063Z,2.10
2022-10-05T21:30:05.411Z,2.03
2022-10-05T21:32:33.367Z,2.20
2022-10-05T21:35:01.414Z,1.63
2022-10-05T21:37:30.680Z,2.00
2022-10-05T21:39:58.581Z,2.30
2022-10-05T21:42:26.498Z,1.93
2022-10-05T21:44:54.472Z,2.30
2022-10-05T21:47:22.453Z,2.50
2022-10-05T21:49:50.401Z,2.70
2022-10-05T21:52:18.319Z,2.33
2022-10-05T21:54:47.908Z,2.30
2022-10-05T21:57:16.183Z,2.43
2022-10-05T21:59:44.124Z,2.27
2022-10-05T22:02:12.101Z,2.53
2022-10-05T22:04:40.050Z,2.30
2022-10-05T22:07:14.579Z,2.40
2022-10-05T22:09:42.331Z,2.30
2022-10-05T22:12:11.828Z,3.10
2022-10-05T22:14:39.540Z,2.67
2022-10-05T22:17:07.767Z,2.33
2022-10-05T22:19:35.739Z,2.50
2022-10-05T22:22:03.475Z,2.40
2022-10-05T22:24:31.472Z,2.47
2022-10-05T22:26:59.416Z,2.80
2022-10-05T22:29:29.473Z,2.23
2022-10-05T22:31:57.553Z,2.20
2022-10-05T22:34:25.544Z,2.33
2022-10-05T22:36:53.570Z,2.50
2022-10-05T22:39:21.538Z,2.20
2022-10-05T22:41:50.576Z,2.20
2022-10-05T22:44:18.621Z,2.30
2022-10-05T22:46:48.138Z,2.10
2022-10-05T22:49:16.081Z,2.10
2022-10-05T22:51:43.833Z,2.40
2022-10-05T22:54:11.562Z,2.37
2022-10-05T22:56:39.973Z,2.30
2022-10-05T22:59:07.914Z,2.30
2022-10-05T23:01:35.929Z,2.10
2022-10-05T23:04:05.414Z,2.50
2022-10-05T23:06:33.802Z,2.40
2022-10-05T23:09:01.745Z,2.10
2022-10-05T23:11:30.191Z,2.10
2022-10-05T23:13:58.649Z,2.20
2022-10-05T23:16:27.442Z,2.30
2022-10-05T23:18:55.634Z,3.10
2022-10-05T23:21:25.704Z,4.07
2022-10-05T23:23:53.471Z,3.80
2022-10-05T23:26:22.043Z,3.57
2022-10-05T23:28:50.271Z,3.87
2022-10-05T23:31:18.965Z,3.57
2022-10-05T23:33:47.114Z,3.37
2022-10-05T23:36:15.762Z,3.00
2022-10-05T23:38:45.667Z,3.37
2022-10-05T23:41:13.527Z,3.30
2022-10-05T23:43:41.878Z,3.47
2022-10-05T23:46:10.047Z,3.00
2022-10-05T23:48:39.382Z,3.40
2022-10-05T23:51:07.494Z,3.00
2022-10-05T23:53:35.534Z,3.20
2022-10-05T23:56:05.027Z,3.10
2022-10-05T23:58:33.522Z,3.37
